Time;durP1;ratioP1;P1;durP2;ratioP2;P2;SDS_P1;SDS_P2;PMS_P1;PMS_P2;Temp;Humidity;BMP_temperature;BMP_pressure;BME280_temperature;BME280_humidity;BME280_pressure;Samples;Min_cycle;Max_cycle;Signal;HPM_P1;HPM_P2
2021/01/10 00:01:47;;;;;;;85.68;35.42;;;2.00;99.90;;;;;;4795065;29;20066;-88
2021/01/10 00:04:12;;;;;;;;;;;2.00;99.90;;;;;;4795909;29;20062;-89
2021/01/10 00:06:38;;;;;;;81.40;33.70;;;2.00;99.90;;;;;;4796278;29;20316;-88
2021/01/10 00:09:05;;;;;;;85.97;35.80;;;2.00;99.90;;;;;;4813103;29;20114;-88
2021/01/10 00:11:30;;;;;;;86.95;37.55;;;2.00;99.90;;;;;;4824391;29;20516;-88
2021/01/10 00:13:56;;;;;;;83.38;35.13;;;2.00;99.90;;;;;;4828275;29;20069;-88
2021/01/10 00:16:25;;;;;;;78.15;35.90;;;2.00;99.90;;;;;;4818903;29;20046;-89
2021/01/10 00:18:53;;;;;;;70.20;34.35;;;2.00;99.90;;;;;;4808263;29;20108;-88
2021/01/10 00:21:18;;;;;;;86.15;36.35;;;2.10;99.90;;;;;;4829990;29;20034;-89
2021/01/10 00:23:45;;;;;;;75.22;32.97;;;2.10;99.90;;;;;;4830731;29;20027;-89
2021/01/10 00:26:11;;;;;;;68.22;34.33;;;2.10;99.90;;;;;;4822211;29;20084;-90
2021/01/10 00:28:36;;;;;;;69.63;32.38;;;1.90;99.90;;;;;;4816523;29;20038;-88
2021/01/10 00:31:02;;;;;;;63.45;31.90;;;1.80;99.90;;;;;;4835208;29;20038;-88
2021/01/10 00:33:30;;;;;;;72.25;34.67;;;1.70;99.90;;;;;;4830256;29;20023;-88
2021/01/10 00:35:56;;;;;;;63.20;29.65;;;1.60;99.90;;;;;;4804930;29;20050;-88
2021/01/10 00:38:23;;;;;;;79.22;35.33;;;1.60;99.90;;;;;;4816587;29;20095;-88
2021/01/10 00:40:49;;;;;;;80.93;34.83;;;1.60;99.90;;;;;;4831578;29;20071;-90
2021/01/10 00:43:17;;;;;;;71.75;35.95;;;1.70;99.90;;;;;;4829961;29;20038;-90
2021/01/10 00:45:42;;;;;;;75.15;35.45;;;1.70;99.90;;;;;;4869093;29;20045;-89
2021/01/10 00:48:08;;;;;;;72.25;34.25;;;1.70;99.90;;;;;;4872147;29;20025;-88
2021/01/10 00:50:34;;;;;;;89.57;38.08;;;1.80;99.90;;;;;;4885292;29;20053;-88
2021/01/10 00:53:08;;;;;;;81.95;36.40;;;1.90;99.90;;;;;;4897835;29;20035;-89
2021/01/10 00:55:33;;;;;;;85.13;38.58;;;1.80;99.90;;;;;;4901455;29;20072;-89
2021/01/10 00:57:59;;;;;;;88.57;36.38;;;1.90;99.90;;;;;;4872304;29;20025;-90
2021/01/10 01:00:30;;;;;;;84.82;37.65;;;1.80;99.90;;;;;;4874333;29;20029;-89
2021/01/10 01:02:56;;;;;;;83.97;37.67;;;1.70;99.90;;;;;;4882577;29;20025;-90
2021/01/10 01:05:28;;;;;;;95.13;39.30;;;1.80;99.90;;;;;;4906991;29;20044;-90
2021/01/10 01:07:56;;;;;;;81.93;38.35;;;1.80;99.90;;;;;;4891345;29;20009;-88
2021/01/10 01:10:23;;;;;;;89.00;38.33;;;1.80;99.90;;;;;;4887953;29;20036;-88
2021/01/10 01:12:51;;;;;;;83.13;38.78;;;1.80;99.90;;;;;;4905200;29;20017;-89
2021/01/10 01:15:17;;;;;;;85.90;39.72;;;1.80;99.90;;;;;;4895031;29;20037;-89
2021/01/10 01:17:45;;;;;;;90.78;38.45;;;1.90;99.90;;;;;;4874100;29;20039;-91
2021/01/10 01:20:11;;;;;;;89.65;39.15;;;1.90;99.90;;;;;;4885282;29;20021;-91
2021/01/10 01:22:36;;;;;;;95.15;37.88;;;1.90;99.90;;;;;;4903829;29;20023;-90
2021/01/10 01:25:02;;;;;;;80.63;37.50;;;1.80;99.90;;;;;;4889120;29;20049;-91
2021/01/10 01:27:31;;;;;;;78.38;36.53;;;1.90;99.90;;;;;;4888883;29;20048;-90
2021/01/10 01:29:58;;;;;;;73.25;37.15;;;1.90;99.90;;;;;;4869796;29;20025;-91
2021/01/10 01:32:25;;;;;;;70.53;34.40;;;1.90;99.90;;;;;;4877145;29;20032;-89
2021/01/10 01:34:54;;;;;;;67.72;33.17;;;1.80;99.90;;;;;;4867795;29;20040;-90
2021/01/10 01:37:22;;;;;;;72.95;35.90;;;1.90;99.90;;;;;;4867951;29;20067;-90
2021/01/10 01:39:51;;;;;;;65.05;33.05;;;1.90;99.90;;;;;;4884223;29;20393;-90
2021/01/10 01:42:19;;;;;;;75.95;33.90;;;1.80;99.90;;;;;;4867644;29;20100;-90
2021/01/10 01:44:52;;;;;;;69.78;34.45;;;1.90;99.90;;;;;;4868542;29;20029;-90
2021/01/10 01:47:20;;;;;;;77.78;33.90;;;1.90;99.90;;;;;;4876208;29;20021;-88
2021/01/10 01:49:47;;;;;;;69.47;32.50;;;1.80;99.90;;;;;;4870177;29;20539;-90
2021/01/10 01:52:15;;;;;;;72.55;32.88;;;1.80;99.90;;;;;;4867829;29;20029;-89
2021/01/10 01:54:45;;;;;;;67.53;32.20;;;1.70;99.90;;;;;;4845071;29;20038;-90
2021/01/10 01:57:13;;;;;;;68.22;31.75;;;1.70;99.90;;;;;;4830711;29;20034;-87
2021/01/10 01:59:41;;;;;;;68.55;34.10;;;1.50;99.90;;;;;;4845634;29;20536;-89
2021/01/10 02:02:07;;;;;;;68.75;31.88;;;1.60;99.90;;;;;;4844309;29;20034;-88
2021/01/10 02:04:40;;;;;;;71.40;32.78;;;1.70;99.90;;;;;;4843584;29;20046;-86
2021/01/10 02:07:37;;;;;;;74.53;34.22;;;1.70;99.90;;;;;;4843636;29;20116;-88
2021/01/10 02:10:09;;;;;;;81.53;34.75;;;1.70;99.90;;;;;;4838914;29;20033;-87
2021/01/10 02:12:58;;;;;;;81.50;34.85;;;1.80;99.90;;;;;;4850819;29;20026;-87
2021/01/10 02:15:29;;;;;;;82.32;35.30;;;1.70;99.90;;;;;;4849951;29;20071;-88
2021/01/10 02:17:58;;;;;;;73.47;33.33;;;1.70;99.90;;;;;;4851176;29;20052;-88
2021/01/10 02:20:29;;;;;;;80.50;35.17;;;1.80;99.90;;;;;;4854751;29;20046;-89
2021/01/10 02:23:04;;;;;;;86.38;35.45;;;1.60;99.90;;;;;;4842839;29;20034;-89
2021/01/10 02:25:32;;;;;;;76.47;35.90;;;1.70;99.90;;;;;;4861077;29;20061;-86
2021/01/10 02:27:59;;;;;;;93.90;37.05;;;1.70;99.90;;;;;;4870659;29;20053;-90
2021/01/10 02:30:26;;;;;;;72.57;33.67;;;1.60;99.90;;;;;;4870980;29;20592;-89
2021/01/10 02:33:02;;;;;;;81.72;35.20;;;1.60;99.90;;;;;;4870654;29;20058;-90
2021/01/10 02:35:31;;;;;;;78.22;37.40;;;1.70;99.90;;;;;;4851415;29;20129;-91
2021/01/10 02:38:31;;;;;;;78.65;35.47;;;1.70;99.90;;;;;;4864334;29;20025;-90
2021/01/10 02:41:13;;;;;;;90.05;38.20;;;1.70;99.90;;;;;;4876741;29;20058;-91
2021/01/10 02:43:46;;;;;;;94.38;37.28;;;1.70;99.90;;;;;;4867163;29;20120;-90
2021/01/10 02:46:14;;;;;;;83.53;35.95;;;1.60;99.90;;;;;;4856825;29;20063;-90
2021/01/10 02:48:41;;;;;;;82.70;35.30;;;1.70;99.90;;;;;;4855518;29;20526;-88
2021/01/10 02:51:12;;;;;;;83.93;35.40;;;1.70;99.90;;;;;;4853504;29;20470;-89
2021/01/10 02:53:42;;;;;;;90.50;35.40;;;1.70;99.90;;;;;;4865597;29;20025;-86
2021/01/10 02:56:08;;;;;;;81.47;35.70;;;1.70;99.90;;;;;;4869456;29;20367;-89
2021/01/10 02:58:44;;;;;;;85.47;37.20;;;1.70;99.90;;;;;;4851573;29;20337;-87
2021/01/10 03:01:13;;;;;;;89.72;39.83;;;1.70;99.90;;;;;;4883242;29;20025;-87
2021/01/10 03:03:39;;;;;;;77.07;34.30;;;1.70;99.90;;;;;;4870009;29;20123;-90
2021/01/10 03:06:07;;;;;;;84.22;36.50;;;1.60;99.90;;;;;;4875833;29;20017;-89
2021/01/10 03:08:40;;;;;;;83.95;36.25;;;1.50;99.90;;;;;;4887039;29;20033;-90
2021/01/10 03:11:13;;;;;;;81.80;35.25;;;1.60;99.90;;;;;;4887592;29;20049;-89
2021/01/10 03:13:39;;;;;;;91.18;35.97;;;1.60;99.90;;;;;;4904116;29;20024;-89
2021/01/10 03:16:06;;;;;;;82.63;35.30;;;1.50;99.90;;;;;;4953072;23;20037;-88
2021/01/10 03:18:33;;;;;;;85.35;37.30;;;1.50;99.90;;;;;;4902298;29;20051;-88
2021/01/10 03:20:59;;;;;;;87.22;37.50;;;1.40;99.90;;;;;;4887024;29;20037;-89
2021/01/10 03:23:25;;;;;;;90.05;36.75;;;1.50;99.90;;;;;;4902487;29;20032;-87
2021/01/10 03:25:51;;;;;;;92.65;37.30;;;1.50;99.90;;;;;;4897478;29;20135;-90
2021/01/10 03:28:17;;;;;;;87.88;36.95;;;1.60;99.90;;;;;;4882750;29;20037;-89
2021/01/10 03:30:42;;;;;;;90.38;36.63;;;1.70;99.90;;;;;;4868285;29;20060;-90
2021/01/10 03:33:08;;;;;;;95.15;37.75;;;1.60;99.90;;;;;;4892530;29;20025;-90
2021/01/10 03:35:35;;;;;;;89.22;36.60;;;1.60;99.90;;;;;;4869571;29;20045;-89
2021/01/10 03:38:04;;;;;;;90.25;35.22;;;1.60;99.90;;;;;;4886968;29;20049;-90
2021/01/10 03:40:30;;;;;;;87.55;35.05;;;1.60;99.90;;;;;;4894465;29;20200;-89
2021/01/10 03:42:56;;;;;;;91.63;39.92;;;1.60;99.90;;;;;;4864006;29;20044;-89
2021/01/10 03:45:22;;;;;;;104.88;38.70;;;1.60;99.90;;;;;;4862574;29;20029;-90
2021/01/10 03:47:48;;;;;;;100.47;38.50;;;1.60;99.90;;;;;;4877483;29;20045;-89
2021/01/10 03:50:13;;;;;;;102.85;41.28;;;1.60;99.90;;;;;;4846351;29;20064;-89
2021/01/10 03:52:44;;;;;;;101.68;42.78;;;1.60;99.90;;;;;;4862253;29;20687;-89
2021/01/10 03:55:14;;;;;;;100.38;42.42;;;1.70;99.90;;;;;;4871607;29;20115;-88
2021/01/10 03:57:40;;;;;;;111.90;43.65;;;1.60;99.90;;;;;;4857180;29;20033;-88
2021/01/10 04:00:10;;;;;;;100.82;40.03;;;1.60;99.90;;;;;;4872470;29;20056;-89
2021/01/10 04:02:40;;;;;;;106.75;40.28;;;1.50;99.90;;;;;;4879383;29;20017;-88
2021/01/10 04:05:09;;;;;;;92.65;39.45;;;1.60;99.90;;;;;;4873434;29;20451;-88
2021/01/10 04:07:35;;;;;;;77.32;33.40;;;1.60;99.90;;;;;;4863106;29;20076;-89
2021/01/10 04:10:02;;;;;;;68.22;32.15;;;1.60;99.90;;;;;;4882017;29;20040;-89
2021/01/10 04:12:29;;;;;;;77.90;33.42;;;1.60;99.90;;;;;;4909762;29;20077;-90
2021/01/10 04:14:58;;;;;;;73.35;31.80;;;1.60;99.90;;;;;;4886887;29;20363;-89
2021/01/10 04:17:25;;;;;;;77.63;32.42;;;1.60;99.90;;;;;;4882870;29;20127;-88
2021/01/10 04:19:52;;;;;;;72.72;30.67;;;1.60;99.90;;;;;;4894685;29;20056;-88
2021/01/10 04:22:18;;;;;;;79.90;32.83;;;1.50;99.90;;;;;;4894725;29;20053;-89
2021/01/10 04:24:46;;;;;;;81.97;34.28;;;1.60;99.90;;;;;;4906770;29;20032;-89
2021/01/10 04:27:14;;;;;;;81.50;31.85;;;1.60;99.90;;;;;;4879420;29;20032;-89
2021/01/10 04:29:40;;;;;;;71.75;32.78;;;1.50;99.90;;;;;;4882080;29;20044;-89
2021/01/10 04:32:06;;;;;;;71.78;32.28;;;1.50;99.90;;;;;;4910062;29;20017;-90
2021/01/10 04:34:32;;;;;;;78.18;33.15;;;1.60;99.90;;;;;;4901187;29;20040;-88
2021/01/10 04:36:57;;;;;;;71.85;33.35;;;1.60;99.90;;;;;;4884534;29;20036;-88
2021/01/10 04:39:23;;;;;;;83.07;36.53;;;1.60;99.90;;;;;;4882298;29;20032;-90
2021/01/10 04:41:49;;;;;;;69.20;31.20;;;1.50;99.90;;;;;;4882622;29;20427;-88
2021/01/10 04:44:15;;;;;;;70.68;30.48;;;1.60;99.90;;;;;;4885442;29;20029;-89
2021/01/10 04:46:44;;;;;;;62.67;29.90;;;1.60;99.90;;;;;;4886385;29;20037;-89
2021/01/10 04:49:11;;;;;;;61.38;30.17;;;1.60;99.90;;;;;;4902536;29;20061;-90
2021/01/10 04:51:41;;;;;;;61.15;29.65;;;1.60;99.90;;;;;;4886419;29;20117;-89
2021/01/10 04:54:12;;;;;;;60.53;30.75;;;1.50;99.90;;;;;;4908080;29;20040;-90
2021/01/10 04:56:40;;;;;;;;;;;1.50;99.90;;;;;;4921729;29;20041;-90
2021/01/10 04:59:09;;;;;;;71.47;31.65;;;1.70;99.90;;;;;;4908280;29;19919;-89
2021/01/10 05:01:52;;;;;;;80.85;33.42;;;1.60;99.90;;;;;;4924796;29;20035;-89
2021/01/10 05:04:20;;;;;;;67.45;31.17;;;1.70;99.90;;;;;;4913514;29;20493;-90
2021/01/10 05:06:46;;;;;;;65.20;32.75;;;1.70;99.90;;;;;;4887322;29;20029;-90
2021/01/10 05:09:13;;;;;;;72.50;30.48;;;1.70;99.90;;;;;;4904227;29;20021;-89
2021/01/10 05:11:38;;;;;;;61.92;29.15;;;1.70;99.90;;;;;;4885337;29;20043;-90
2021/01/10 05:14:09;;;;;;;63.83;32.47;;;1.50;99.90;;;;;;4902272;29;20029;-89
2021/01/10 05:16:35;;;;;;;68.57;30.30;;;1.50;99.90;;;;;;4895647;29;20363;-89
2021/01/10 05:19:04;;;;;;;71.78;32.35;;;1.50;99.90;;;;;;4901581;29;20016;-90
2021/01/10 05:21:30;;;;;;;70.05;32.20;;;1.40;99.90;;;;;;4896329;29;20438;-90
2021/01/10 05:23:56;;;;;;;62.08;28.90;;;1.40;99.90;;;;;;4885048;29;20033;-87
2021/01/10 05:26:31;;;;;;;58.08;28.45;;;1.30;99.90;;;;;;4908918;29;20016;-89
2021/01/10 05:29:03;;;;;;;65.00;30.85;;;1.30;99.90;;;;;;4912683;29;20026;-89
2021/01/10 05:31:39;;;;;;;59.33;27.95;;;1.20;99.90;;;;;;4905603;29;20059;-89
2021/01/10 05:34:07;;;;;;;62.17;30.40;;;1.30;99.90;;;;;;4889412;29;20057;-89
2021/01/10 05:36:35;;;;;;;60.05;29.27;;;1.10;99.90;;;;;;4862393;29;20041;-90
2021/01/10 05:39:29;;;;;;;54.75;26.48;;;1.10;99.90;;;;;;4886661;29;20020;-89
2021/01/10 05:42:04;;;;;;;52.50;25.75;;;1.10;99.90;;;;;;4907392;29;20352;-86
2021/01/10 05:44:47;;;;;;;60.05;28.17;;;1.10;99.90;;;;;;4894461;29;20024;-87
2021/01/10 05:47:18;;;;;;;52.08;25.75;;;1.00;99.90;;;;;;4907115;29;20021;-87
2021/01/10 05:49:59;;;;;;;66.22;30.67;;;1.00;99.90;;;;;;4896643;29;20036;-89
2021/01/10 05:52:25;;;;;;;54.75;28.70;;;0.90;99.90;;;;;;4885249;29;20359;-88
2021/01/10 05:54:55;;;;;;;54.30;25.55;;;0.90;99.90;;;;;;4885112;29;20039;-89
2021/01/10 05:57:28;;;;;;;55.67;27.70;;;0.90;99.90;;;;;;4885343;29;20034;-88
2021/01/10 05:59:56;;;;;;;59.05;26.88;;;0.80;99.90;;;;;;4885221;29;20055;-88
2021/01/10 06:02:39;;;;;;;57.35;27.80;;;0.60;99.90;;;;;;4902543;29;20386;-88
2021/01/10 06:05:17;;;;;;;55.20;28.40;;;0.60;99.90;;;;;;4913014;29;20080;-88
2021/01/10 06:07:45;;;;;;;51.78;26.70;;;0.60;99.90;;;;;;4898888;29;20447;-88
2021/01/10 06:10:13;;;;;;;56.58;29.20;;;0.50;99.90;;;;;;4891890;29;20025;-88
2021/01/10 06:12:39;;;;;;;54.65;25.63;;;0.50;99.90;;;;;;4892013;29;20032;-89
2021/01/10 06:15:21;;;;;;;57.28;29.63;;;0.60;99.90;;;;;;4884004;29;20029;-88
2021/01/10 06:17:49;;;;;;;61.72;29.50;;;0.40;99.90;;;;;;4882194;29;20045;-89
2021/01/10 06:20:28;;;;;;;55.28;29.40;;;0.40;99.90;;;;;;4882073;29;20025;-88
2021/01/10 06:23:01;;;;;;;71.47;30.73;;;0.50;99.90;;;;;;4898570;29;20468;-89
2021/01/10 06:25:29;;;;;;;72.38;33.55;;;0.50;99.90;;;;;;4882542;29;20056;-87
2021/01/10 06:28:02;;;;;;;70.38;30.83;;;0.60;99.90;;;;;;4882058;29;20039;-88
2021/01/10 06:30:33;;;;;;;72.25;30.23;;;0.70;99.90;;;;;;4895465;29;20059;-87
2021/01/10 06:33:03;;;;;;;;;;;0.80;99.90;;;;;;4889555;29;20041;-89
2021/01/10 06:35:35;;;;;;;78.22;32.97;;;0.80;99.90;;;;;;4893748;29;19923;-90
2021/01/10 06:38:08;;;;;;;83.55;35.55;;;0.80;99.90;;;;;;4865734;29;20033;-89
2021/01/10 06:40:38;;;;;;;76.57;33.95;;;1.00;99.90;;;;;;4884954;29;20515;-90
2021/01/10 06:43:06;;;;;;;79.25;34.65;;;0.80;99.90;;;;;;4883520;29;20036;-91
2021/01/10 06:45:39;;;;;;;78.85;34.00;;;0.90;99.90;;;;;;4892598;29;20040;-89
2021/01/10 06:48:11;;;;;;;86.68;34.53;;;0.90;99.90;;;;;;4904982;29;20048;-88
2021/01/10 06:50:37;;;;;;;68.38;31.67;;;0.90;99.90;;;;;;4922199;29;20009;-90
2021/01/10 06:53:07;;;;;;;73.70;33.33;;;0.90;99.90;;;;;;4899555;29;20056;-90
2021/01/10 06:55:34;;;;;;;83.80;34.28;;;0.90;99.90;;;;;;4901494;29;20092;-89
2021/01/10 06:58:07;;;;;;;83.40;36.42;;;0.90;99.90;;;;;;4886347;29;20131;-90
2021/01/10 07:01:00;;;;;;;74.57;34.38;;;1.20;99.90;;;;;;4883331;29;20041;-90
2021/01/10 07:03:28;;;;;;;73.07;31.95;;;1.10;99.90;;;;;;4876548;29;20008;-88
2021/01/10 07:06:05;;;;;;;70.13;31.33;;;1.20;99.90;;;;;;4897736;29;20025;-90
2021/01/10 07:08:44;;;;;;;60.53;30.67;;;1.00;99.90;;;;;;4877307;29;20047;-89
2021/01/10 07:11:23;;;;;;;67.07;30.67;;;1.00;99.90;;;;;;4872801;29;20104;-90
2021/01/10 07:13:50;;;;;;;60.40;29.55;;;1.00;99.90;;;;;;4875772;29;20044;-89
2021/01/10 07:16:21;;;;;;;74.60;31.70;;;1.10;99.90;;;;;;4879749;29;636395;-90
2021/01/10 07:18:50;;;;;;;64.60;31.35;;;1.00;99.90;;;;;;4916406;29;20107;-89
2021/01/10 07:21:31;;;;;;;62.67;32.25;;;1.10;99.90;;;;;;4878668;29;20033;-90
2021/01/10 07:24:21;;;;;;;81.57;32.80;;;1.00;99.90;;;;;;4879803;29;20364;-88
2021/01/10 07:26:48;;;;;;;76.82;30.73;;;1.10;99.90;;;;;;4896706;29;20285;-88
2021/01/10 07:29:31;;;;;;;75.95;31.60;;;1.20;99.90;;;;;;4895958;29;20053;-88
2021/01/10 07:32:03;;;;;;;70.68;32.15;;;1.20;99.90;;;;;;4904886;29;20029;-89
2021/01/10 07:34:32;;;;;;;72.40;32.33;;;1.20;99.90;;;;;;4914830;29;20029;-89
2021/01/10 07:37:01;;;;;;;66.45;28.60;;;1.50;99.90;;;;;;4896580;29;20040;-89
2021/01/10 07:39:35;;;;;;;63.78;28.67;;;1.60;99.90;;;;;;4914814;29;20060;-88
2021/01/10 07:42:17;;;;;;;65.97;30.08;;;1.40;99.90;;;;;;4842213;29;20060;-89
2021/01/10 07:45:00;;;;;;;60.15;30.38;;;1.40;99.90;;;;;;4903733;29;20024;-89
2021/01/10 07:47:31;;;;;;;62.08;29.33;;;1.40;99.90;;;;;;4889780;29;20037;-90
2021/01/10 07:50:05;;;;;;;58.03;29.63;;;1.40;99.90;;;;;;4887648;29;20115;-90
2021/01/10 07:52:58;;;;;;;56.80;26.92;;;1.50;99.90;;;;;;4881321;29;20069;-89
2021/01/10 07:55:25;;;;;;;63.08;29.65;;;1.50;99.90;;;;;;4882268;29;20045;-90
2021/01/10 07:58:03;;;;;;;59.70;26.30;;;1.50;99.90;;;;;;4909829;29;20324;-90
2021/01/10 08:00:35;;;;;;;59.28;27.75;;;1.50;99.90;;;;;;4895132;29;20024;-90
2021/01/10 08:03:09;;;;;;;61.30;28.33;;;1.70;99.90;;;;;;4887867;29;20029;-91
2021/01/10 08:05:42;;;;;;;59.97;27.48;;;1.80;99.90;;;;;;4884921;29;20029;-89
2021/01/10 08:08:17;;;;;;;49.83;26.98;;;1.70;99.90;;;;;;4883553;29;20032;-88
2021/01/10 08:10:48;;;;;;;49.25;25.75;;;1.70;99.90;;;;;;4877652;29;20028;-88
2021/01/10 08:13:29;;;;;;;63.97;26.38;;;1.70;99.90;;;;;;4894394;29;20509;-89
2021/01/10 08:16:31;;;;;;;54.83;27.02;;;1.70;99.90;;;;;;4899922;29;20459;-89
2021/01/10 08:19:07;;;;;;;;;;;1.90;99.90;;;;;;4879260;29;20024;-90
2021/01/10 08:21:34;;;;;;;50.65;27.88;;;1.70;99.90;;;;;;4905558;29;19919;-91
2021/01/10 08:24:03;;;;;;;53.58;26.15;;;1.80;99.90;;;;;;4889295;29;20028;-87
2021/01/10 08:26:29;;;;;;;55.22;26.80;;;1.80;99.90;;;;;;4889750;29;20048;-89
2021/01/10 08:29:03;;;;;;;51.75;25.13;;;1.80;99.90;;;;;;4888639;29;20048;-90
2021/01/10 08:31:29;;;;;;;52.80;28.95;;;1.90;99.90;;;;;;4905017;29;20033;-89
2021/01/10 08:34:16;;;;;;;57.35;27.15;;;2.50;99.90;;;;;;4900189;29;20031;-91
2021/01/10 08:36:46;;;;;;;46.88;26.65;;;2.00;99.90;;;;;;4908160;29;20040;-89
2021/01/10 08:39:16;;;;;;;52.50;25.90;;;2.40;99.90;;;;;;4909147;29;20034;-89
2021/01/10 08:41:49;;;;;;;58.22;25.90;;;2.10;99.90;;;;;;4907849;29;20069;-89
2021/01/10 08:44:21;;;;;;;55.95;27.42;;;2.10;99.90;;;;;;4915045;29;20455;-89
2021/01/10 08:46:50;;;;;;;;;;;2.20;99.90;;;;;;4889396;29;20024;-89
2021/01/10 08:49:49;;;;;;;50.58;24.85;;;2.20;99.90;;;;;;4874160;29;20370;-92
2021/01/10 08:52:21;;;;;;;56.55;28.00;;;2.20;99.90;;;;;;4890757;29;20028;-91
2021/01/10 08:54:51;;;;;;;60.17;27.95;;;2.30;99.90;;;;;;4891217;29;20051;-90
2021/01/10 08:57:17;;;;;;;64.60;30.65;;;2.30;99.90;;;;;;4882954;29;20089;-90
2021/01/10 09:00:12;;;;;;;56.70;29.25;;;2.90;99.90;;;;;;4899717;29;20033;-91
2021/01/10 09:02:40;;;;;;;57.88;29.67;;;2.30;99.90;;;;;;4879493;29;20045;-88
2021/01/10 09:05:09;;;;;;;59.58;32.88;;;2.40;99.90;;;;;;4901082;29;20028;-87
2021/01/10 09:07:36;;;;;;;52.75;27.67;;;2.50;99.90;;;;;;4904589;29;20032;-90
2021/01/10 09:10:08;;;;;;;63.78;29.30;;;2.40;99.90;;;;;;4876441;29;20084;-92
2021/01/10 09:12:38;;;;;;;58.45;29.23;;;2.60;99.90;;;;;;4890858;29;20052;-90
2021/01/10 09:15:38;;;;;;;;;;;;;;;;;;;;;
2021/01/10 09:18:19;;;;;;;56.67;27.92;;;2.70;99.90;;;;;;4914298;29;20089;-90
2021/01/10 09:21:11;;;;;;;55.25;28.30;;;2.70;99.90;;;;;;5078466;24;20049;-91
2021/01/10 09:23:38;;;;;;;50.55;26.92;;;2.60;99.90;;;;;;4874685;29;20026;-90
2021/01/10 09:26:33;;;;;;;56.38;27.80;;;2.80;99.90;;;;;;4866687;29;20037;-92
2021/01/10 09:29:15;;;;;;;58.03;29.40;;;2.90;99.90;;;;;;4856734;29;20034;-91
2021/01/10 09:31:47;;;;;;;49.17;25.10;;;2.80;99.90;;;;;;4863014;29;20042;-90
2021/01/10 09:34:24;;;;;;;51.00;29.17;;;2.90;99.90;;;;;;4852618;29;20034;-91
2021/01/10 09:37:04;;;;;;;49.40;24.90;;;2.90;99.90;;;;;;4852758;29;20363;-90
2021/01/10 09:40:09;;;;;;;57.13;26.88;;;3.00;99.90;;;;;;4859994;29;20030;-90
2021/01/10 09:42:51;;;;;;;53.40;27.20;;;3.00;99.90;;;;;;4864579;29;20033;-89
2021/01/10 09:45:34;;;;;;;49.25;25.75;;;3.10;99.90;;;;;;4852526;29;20064;-89
2021/01/10 09:48:01;;;;;;;47.20;25.70;;;3.20;99.90;;;;;;4854798;29;20069;-89
2021/01/10 09:50:33;;;;;;;52.83;28.60;;;3.20;99.90;;;;;;4862945;29;20576;-89
2021/01/10 09:53:01;;;;;;;53.38;25.52;;;3.20;99.90;;;;;;4854379;29;20116;-89
2021/01/10 09:55:44;;;;;;;54.58;26.33;;;3.20;99.90;;;;;;4861185;29;20038;-88
2021/01/10 09:58:14;;;;;;;56.53;28.40;;;3.20;99.90;;;;;;4859062;29;20033;-88
2021/01/10 10:00:57;;;;;;;51.30;25.45;;;3.40;99.90;;;;;;4851774;29;20029;-87
2021/01/10 10:03:24;;;;;;;55.83;27.70;;;3.20;99.90;;;;;;4850896;29;20032;-88
2021/01/10 10:06:00;;;;;;;54.97;27.27;;;3.30;99.90;;;;;;4860072;29;20126;-89
2021/01/10 10:08:26;;;;;;;62.53;29.13;;;3.30;99.90;;;;;;4865881;29;20029;-89
2021/01/10 10:10:52;;;;;;;62.13;28.48;;;3.00;99.90;;;;;;4854360;29;20042;-88
2021/01/10 10:13:31;;;;;;;60.03;29.67;;;3.30;99.90;;;;;;4861370;29;20033;-90
2021/01/10 10:15:58;;;;;;;56.38;29.67;;;3.40;99.90;;;;;;4861185;29;20033;-89
2021/01/10 10:18:28;;;;;;;55.92;29.05;;;3.10;99.90;;;;;;4855845;29;20086;-88
2021/01/10 10:20:54;;;;;;;53.97;28.02;;;2.90;99.90;;;;;;4857871;29;20058;-89
2021/01/10 10:23:21;;;;;;;66.25;29.83;;;3.80;99.90;;;;;;4857290;29;20029;-89
2021/01/10 10:25:56;;;;;;;54.83;29.10;;;3.40;99.90;;;;;;4849225;29;20049;-92
2021/01/10 10:28:23;;;;;;;59.63;28.95;;;3.30;99.90;;;;;;4846547;29;20041;-89
2021/01/10 10:30:49;;;;;;;56.33;29.48;;;3.40;99.90;;;;;;4846543;29;20025;-89
2021/01/10 10:33:16;;;;;;;68.28;32.53;;;3.50;99.90;;;;;;4847681;29;20031;-89
2021/01/10 10:35:51;;;;;;;61.20;32.88;;;3.50;99.90;;;;;;4849599;29;20018;-90
2021/01/10 10:38:20;;;;;;;60.05;30.25;;;3.60;99.90;;;;;;4843879;29;20117;-89
2021/01/10 10:40:46;;;;;;;55.70;28.92;;;3.70;99.90;;;;;;4851471;29;20037;-89
2021/01/10 10:43:14;;;;;;;57.75;28.90;;;3.70;99.90;;;;;;4843695;29;20041;-91
2021/01/10 10:45:40;;;;;;;52.38;26.92;;;3.70;99.90;;;;;;4848938;29;20118;-90
2021/01/10 10:48:07;;;;;;;54.35;30.02;;;4.60;99.90;;;;;;4850228;29;20050;-88
2021/01/10 10:50:33;;;;;;;56.90;28.50;;;3.80;99.90;;;;;;4831237;29;20044;-89
2021/01/10 10:52:59;;;;;;;53.55;27.02;;;3.90;99.90;;;;;;4851659;29;20486;-90
2021/01/10 10:55:26;;;;;;;58.75;26.92;;;3.70;99.90;;;;;;4854171;29;20108;-90
2021/01/10 10:57:52;;;;;;;54.90;27.13;;;3.70;99.90;;;;;;4832419;29;20038;-90
2021/01/10 11:00:19;;;;;;;50.60;24.80;;;3.90;99.90;;;;;;4839317;29;20134;-88
2021/01/10 11:02:44;;;;;;;54.08;30.02;;;4.00;99.90;;;;;;4849459;29;20030;-89
2021/01/10 11:05:13;;;;;;;51.03;26.08;;;5.00;99.90;;;;;;4829823;29;20110;-86
2021/01/10 11:08:38;;;;;;;52.28;29.45;;;4.10;99.90;;;;;;4843333;29;20041;-90
2021/01/10 11:11:04;;;;;;;48.83;25.73;;;4.00;99.90;;;;;;4781365;30;20032;-89
2021/01/10 11:13:30;;;;;;;50.20;25.40;;;4.00;99.90;;;;;;4790418;30;20064;-89
2021/01/10 11:15:55;;;;;;;46.50;24.67;;;4.00;99.90;;;;;;4817015;29;20050;-88
2021/01/10 11:18:21;;;;;;;51.28;26.67;;;4.10;99.90;;;;;;4834602;29;20248;-90
2021/01/10 11:20:50;;;;;;;47.28;23.70;;;4.10;99.90;;;;;;4827754;29;20594;-90
2021/01/10 11:23:16;;;;;;;45.42;24.13;;;4.10;99.90;;;;;;4819288;29;20778;-90
2021/01/10 11:25:44;;;;;;;49.50;25.85;;;4.20;99.90;;;;;;4815565;29;20138;-90
2021/01/10 11:28:11;;;;;;;53.03;27.67;;;4.70;99.90;;;;;;4812107;29;20043;-89
2021/01/10 11:30:37;;;;;;;51.50;27.15;;;4.00;99.90;;;;;;4816762;29;20089;-88
2021/01/10 11:33:03;;;;;;;44.00;24.65;;;4.10;99.90;;;;;;4800161;29;20064;-91
2021/01/10 11:35:34;;;;;;;49.00;24.15;;;3.60;99.90;;;;;;4817399;29;20412;-89
2021/01/10 11:38:00;;;;;;;;;;;4.30;99.90;;;;;;4825553;29;20202;-87
2021/01/10 11:40:34;;;;;;;47.00;24.63;;;4.20;99.90;;;;;;4827709;29;20386;-88
2021/01/10 11:43:00;;;;;;;49.55;24.25;;;4.20;99.90;;;;;;4801567;29;20094;-88
2021/01/10 11:45:26;;;;;;;44.13;23.63;;;4.30;99.90;;;;;;4811078;29;20066;-89
2021/01/10 11:47:52;;;;;;;49.00;23.83;;;4.30;99.90;;;;;;4811644;29;20034;-89
2021/01/10 11:50:18;;;;;;;41.05;24.10;;;5.20;99.90;;;;;;4829635;29;20056;-90
2021/01/10 11:58:12;;;;;;;41.50;22.67;;;4.50;99.90;;;;;;4872742;29;20116;-91
2021/01/10 12:00:41;;;;;;;46.35;22.38;;;4.50;99.90;;;;;;4875935;29;20029;-90
2021/01/10 12:03:09;;;;;;;50.00;24.70;;;4.50;99.90;;;;;;4861611;29;20101;-90
2021/01/10 12:05:39;;;;;;;45.28;23.52;;;4.60;99.90;;;;;;4865086;29;20589;-88
2021/01/10 12:08:21;;;;;;;38.65;21.77;;;4.70;99.90;;;;;;4841794;29;20037;-89
2021/01/10 12:10:53;;;;;;;42.90;24.42;;;4.80;99.90;;;;;;4851066;29;20030;-89
2021/01/10 12:13:24;;;;;;;44.42;23.60;;;4.80;99.90;;;;;;4853104;29;20036;-88
2021/01/10 12:15:50;;;;;;;37.25;20.52;;;4.80;99.90;;;;;;4855545;29;20383;-89
2021/01/10 12:18:32;;;;;;;41.88;21.80;;;4.30;99.90;;;;;;4839907;29;20037;-90
2021/01/10 12:20:59;;;;;;;37.33;19.90;;;4.70;99.90;;;;;;4836347;29;20129;-88
2021/01/10 12:23:28;;;;;;;51.05;20.92;;;4.80;99.90;;;;;;4844008;29;20141;-89
2021/01/10 12:25:59;;;;;;;40.70;21.15;;;4.80;99.90;;;;;;4833391;29;20174;-89
2021/01/10 12:28:28;;;;;;;40.70;21.58;;;4.80;99.90;;;;;;4844950;29;20034;-89
2021/01/10 12:30:59;;;;;;;39.22;21.33;;;4.20;99.90;;;;;;4855634;29;20088;-89
2021/01/10 12:33:29;;;;;;;41.47;21.35;;;4.70;99.90;;;;;;4831856;29;20039;-87
2021/01/10 12:35:56;;;;;;;42.92;21.05;;;4.70;99.90;;;;;;4816586;29;20046;-91
2021/01/10 12:38:23;;;;;;;46.20;21.02;;;4.80;99.90;;;;;;4830994;29;20045;-88
2021/01/10 12:40:51;;;;;;;43.35;23.40;;;4.70;99.90;;;;;;4826263;29;20504;-89
2021/01/10 12:43:20;;;;;;;43.90;20.17;;;4.80;99.90;;;;;;4809371;29;20034;-88
2021/01/10 12:45:48;;;;;;;38.80;22.30;;;4.80;99.90;;;;;;4824671;29;20049;-89
2021/01/10 12:48:17;;;;;;;51.15;22.75;;;4.10;99.90;;;;;;4826106;29;20027;-91
2021/01/10 12:50:47;;;;;;;39.47;22.35;;;4.90;99.90;;;;;;4824949;29;20440;-89
2021/01/10 12:53:14;;;;;;;43.72;24.00;;;5.50;99.90;;;;;;4842110;29;20173;-88
2021/01/10 12:55:40;;;;;;;43.25;23.38;;;4.80;99.90;;;;;;4844700;29;20038;-88
2021/01/10 12:58:15;;;;;;;40.17;21.80;;;4.90;99.90;;;;;;4844150;29;20135;-89
2021/01/10 13:00:42;;;;;;;48.72;22.63;;;4.90;99.90;;;;;;4843746;29;20034;-88
2021/01/10 13:03:58;;;;;;;;;;;;;;;;;;;;;
2021/01/10 13:06:31;;;;;;;38.92;21.85;;;5.00;99.90;;;;;;4858426;29;20117;-89